createdAt,value
2023-05-11T00:02:05.868Z,4.97
2023-05-11T00:04:32.234Z,4.60
2023-05-11T00:06:58.655Z,4.63
2023-05-11T00:09:24.943Z,6.57
2023-05-11T00:11:54.252Z,5.07
2023-05-11T00:14:20.480Z,4.85
2023-05-11T00:16:46.772Z,5.18
2023-05-11T00:19:13.051Z,4.40
2023-05-11T00:21:39.355Z,4.05
2023-05-11T00:24:05.881Z,4.47
2023-05-11T00:26:32.134Z,4.88
2023-05-11T00:28:58.425Z,4.18
2023-05-11T00:31:25.926Z,4.40
2023-05-11T00:33:54.859Z,5.50
2023-05-11T00:36:21.980Z,7.07
2023-05-11T00:38:49.936Z,4.32
2023-05-11T00:41:16.282Z,5.35
2023-05-11T00:43:42.606Z,5.32
2023-05-11T00:46:09.114Z,4.50
2023-05-11T00:48:35.427Z,5.45
2023-05-11T00:51:02.095Z,4.82
2023-05-11T00:53:28.561Z,4.45
2023-05-11T00:55:54.905Z,5.32
2023-05-11T00:58:21.414Z,4.10
2023-05-11T01:00:48.063Z,6.20
2023-05-11T01:03:15.373Z,4.47
2023-05-11T01:05:44.713Z,6.38
2023-05-11T01:08:40.661Z,4.53
2023-05-11T01:11:21.585Z,5.00
2023-05-11T01:14:03.484Z,5.90
2023-05-11T01:16:32.385Z,4.90
2023-05-11T01:19:01.642Z,5.43
2023-05-11T01:21:30.103Z,5.28
2023-05-11T01:24:08.638Z,3.97
2023-05-11T01:26:53.862Z,4.53
2023-05-11T01:29:26.751Z,5.43
2023-05-11T01:31:55.223Z,4.20
2023-05-11T01:34:23.372Z,5.55
2023-05-11T01:36:52.364Z,4.70
2023-05-11T01:39:21.955Z,5.45
2023-05-11T01:41:51.954Z,5.63
2023-05-11T01:44:18.892Z,5.47
2023-05-11T01:46:45.736Z,6.20
2023-05-11T01:49:12.735Z,4.53
2023-05-11T01:51:39.533Z,4.45
2023-05-11T01:54:09.638Z,4.32
2023-05-11T01:56:37.768Z,5.57
2023-05-11T01:59:04.924Z,5.25
2023-05-11T02:01:32.329Z,4.90
2023-05-11T02:04:00.855Z,6.53
2023-05-11T02:06:29.152Z,5.63
2023-05-11T02:08:56.376Z,5.28
2023-05-11T02:11:24.187Z,6.18
2023-05-11T02:13:50.727Z,6.28
2023-05-11T02:16:18.305Z,5.57
2023-05-11T02:18:45.757Z,6.32
2023-05-11T02:21:13.868Z,6.20
2023-05-11T02:23:40.749Z,5.25
2023-05-11T02:26:08.460Z,5.47
2023-05-11T02:28:34.776Z,7.38
2023-05-11T02:31:05.136Z,5.47
2023-05-11T02:33:32.870Z,5.97
2023-05-11T02:35:59.555Z,5.78
2023-05-11T02:38:29.901Z,6.55
2023-05-11T02:40:58.661Z,6.13
2023-05-11T02:43:25.512Z,5.68
2023-05-11T02:45:53.736Z,7.32
2023-05-11T02:48:22.473Z,6.10
2023-05-11T02:50:49.817Z,5.43
2023-05-11T02:53:17.300Z,6.97
2023-05-11T02:55:43.730Z,5.85
2023-05-11T02:58:10.215Z,6.57
2023-05-11T03:00:36.618Z,7.35
2023-05-11T03:03:03.995Z,5.93
2023-05-11T03:05:30.471Z,6.35
2023-05-11T03:07:57.857Z,6.18
2023-05-11T03:10:26.002Z,9.75
2023-05-11T03:12:52.479Z,7.30
2023-05-11T03:15:20.219Z,6.07
2023-05-11T03:17:47.353Z,6.75
2023-05-11T03:20:13.984Z,6.22
2023-05-11T03:22:40.682Z,6.28
2023-05-11T03:25:07.792Z,6.22
2023-05-11T03:27:34.685Z,7.22
2023-05-11T03:30:02.990Z,6.45
2023-05-11T03:32:29.392Z,5.82
2023-05-11T03:34:56.002Z,5.97
2023-05-11T03:37:22.378Z,6.40
2023-05-11T03:39:52.047Z,7.18
2023-05-11T03:42:20.234Z,7.00
2023-05-11T03:44:47.732Z,6.50
2023-05-11T03:47:15.370Z,6.13
2023-05-11T03:49:42.779Z,6.40
2023-05-11T03:52:09.735Z,5.93
2023-05-11T03:54:36.323Z,6.30
2023-05-11T03:57:02.685Z,6.43
2023-05-11T03:59:28.984Z,6.43
2023-05-11T04:01:56.052Z,6.63
2023-05-11T04:04:29.357Z,7.10
2023-05-11T04:06:55.989Z,5.97
2023-05-11T04:09:22.323Z,6.65
2023-05-11T04:11:48.673Z,5.63
2023-05-11T04:14:15.077Z,5.35
2023-05-11T04:16:41.613Z,6.82
2023-05-11T04:19:08.124Z,5.40
2023-05-11T04:21:34.447Z,8.32
2023-05-11T04:24:00.863Z,5.63
2023-05-11T04:26:27.228Z,5.85
2023-05-11T04:28:53.665Z,6.53
2023-05-11T04:31:19.996Z,6.68
2023-05-11T04:33:46.348Z,6.45
2023-05-11T04:36:12.640Z,7.20
2023-05-11T04:38:39.269Z,7.32
2023-05-11T04:41:05.893Z,6.93
2023-05-11T04:43:32.720Z,6.22
2023-05-11T04:46:02.110Z,6.00
2023-05-11T04:48:28.464Z,5.70
2023-05-11T04:50:54.985Z,6.50
2023-05-11T04:53:21.429Z,5.82
2023-05-11T04:55:47.771Z,7.78
2023-05-11T04:58:14.110Z,6.30
2023-05-11T05:00:40.504Z,6.53
2023-05-11T05:03:07.215Z,5.80
2023-05-11T05:05:33.480Z,5.80
2023-05-11T05:07:59.805Z,5.93
2023-05-11T05:10:26.118Z,6.97
2023-05-11T05:12:52.423Z,7.82
2023-05-11T05:15:18.785Z,9.68
2023-05-11T05:17:45.208Z,7.55
2023-05-11T05:20:11.615Z,5.65
2023-05-11T05:22:37.845Z,7.80
2023-05-11T05:25:04.297Z,8.68
2023-05-11T05:27:33.448Z,7.38
2023-05-11T05:30:00.964Z,8.50
2023-05-11T05:32:27.333Z,10.38
2023-05-11T05:34:53.609Z,6.32
2023-05-11T05:37:19.865Z,7.65
2023-05-11T05:39:48.265Z,7.55
2023-05-11T05:42:14.808Z,9.00
2023-05-11T05:44:41.165Z,7.50
2023-05-11T05:47:07.444Z,8.13
2023-05-11T05:49:33.800Z,8.27
2023-05-11T05:52:00.120Z,8.80
2023-05-11T05:54:26.490Z,7.07
2023-05-11T05:56:52.839Z,6.97
2023-05-11T05:59:23.560Z,9.70
2023-05-11T06:01:50.646Z,6.35
2023-05-11T06:04:17.274Z,8.48
2023-05-11T06:06:43.594Z,13.23
2023-05-11T06:09:09.924Z,10.73
2023-05-11T06:11:36.655Z,10.68
2023-05-11T06:14:02.954Z,11.43
2023-05-11T06:16:29.288Z,9.88
2023-05-11T06:18:56.204Z,8.95
2023-05-11T06:21:22.536Z,9.48
2023-05-11T06:23:48.827Z,10.05
2023-05-11T06:26:15.187Z,11.15
2023-05-11T06:28:41.475Z,9.50
2023-05-11T06:31:07.821Z,9.90
2023-05-11T06:33:34.180Z,9.57
2023-05-11T06:36:04.959Z,9.55
2023-05-11T06:38:31.499Z,7.00
2023-05-11T06:40:57.774Z,9.98
2023-05-11T06:43:24.118Z,9.00
2023-05-11T06:45:50.473Z,10.25
2023-05-11T06:48:16.809Z,8.80
2023-05-11T06:50:43.135Z,8.95
2023-05-11T06:53:10.668Z,7.95
2023-05-11T06:55:37.913Z,8.18
2023-05-11T06:58:04.340Z,7.55
2023-05-11T07:00:30.685Z,9.38
2023-05-11T07:02:57.153Z,9.73
2023-05-11T07:05:23.744Z,9.07
2023-05-11T07:07:50.046Z,8.82
2023-05-11T07:10:16.527Z,9.38
2023-05-11T07:12:43.161Z,6.75
2023-05-11T07:15:09.710Z,8.77
2023-05-11T07:17:36.088Z,7.47
2023-05-11T07:20:02.390Z,6.28
2023-05-11T07:22:28.704Z,8.88
2023-05-11T07:24:55.037Z,7.13
2023-05-11T07:27:21.341Z,15.07
2023-05-11T07:29:47.659Z,7.32
2023-05-11T07:32:13.947Z,8.23
2023-05-11T07:34:41.212Z,7.88
2023-05-11T07:37:08.288Z,9.02
2023-05-11T07:39:34.922Z,6.68
2023-05-11T07:42:01.422Z,10.35
2023-05-11T07:44:37.591Z,7.25
2023-05-11T07:47:03.916Z,6.45
2023-05-11T07:49:39.853Z,7.93
2023-05-11T07:52:09.981Z,9.65
2023-05-11T07:54:36.290Z,9.18
2023-05-11T07:57:04.128Z,8.13
2023-05-11T07:59:30.451Z,10.93
2023-05-11T08:01:56.922Z,8.55
2023-05-11T08:04:23.332Z,9.48
2023-05-11T08:06:49.876Z,9.93
2023-05-11T08:09:16.254Z,9.10
2023-05-11T08:11:42.620Z,8.82
2023-05-11T08:14:08.894Z,8.13
2023-05-11T08:16:37.165Z,8.35
2023-05-11T08:19:03.590Z,6.93
2023-05-11T08:21:30.568Z,12.98
2023-05-11T08:23:56.874Z,7.90
2023-05-11T08:26:23.177Z,7.85
2023-05-11T08:28:49.528Z,8.43
2023-05-11T08:31:17.600Z,6.93
2023-05-11T08:33:44.496Z,8.95
2023-05-11T08:36:13.232Z,8.55
2023-05-11T08:38:39.584Z,9.27
2023-05-11T08:41:07.669Z,6.63
2023-05-11T08:43:39.678Z,7.95
2023-05-11T08:46:09.522Z,6.05
2023-05-11T08:48:36.112Z,9.80
2023-05-11T08:51:04.301Z,8.50
2023-05-11T08:53:30.713Z,9.32
2023-05-11T08:55:58.297Z,9.00
2023-05-11T08:58:24.790Z,11.80
2023-05-11T09:00:51.473Z,8.93
2023-05-11T09:03:18.480Z,8.18
2023-05-11T09:05:48.607Z,8.73
2023-05-11T09:08:17.499Z,11.80
2023-05-11T09:10:44.322Z,8.02
2023-05-11T09:13:10.917Z,9.10
2023-05-11T09:15:38.378Z,7.63
2023-05-11T09:18:05.135Z,7.57
2023-05-11T09:20:32.244Z,10.38
2023-05-11T09:22:58.551Z,9.48
2023-05-11T09:25:25.677Z,6.95
2023-05-11T09:27:52.488Z,11.63
2023-05-11T09:30:23.651Z,11.52
2023-05-11T09:32:51.603Z,11.30
2023-05-11T09:35:22.423Z,9.73
2023-05-11T09:37:58.331Z,10.30
2023-05-11T09:40:33.389Z,10.43
2023-05-11T09:43:01.238Z,10.95
2023-05-11T09:45:40.586Z,10.00
2023-05-11T09:48:08.468Z,11.73
2023-05-11T09:50:35.751Z,11.93
2023-05-11T09:53:02.260Z,9.18
2023-05-11T09:55:29.297Z,10.95
2023-05-11T09:57:57.117Z,11.27
2023-05-11T10:00:25.289Z,11.57
2023-05-11T10:03:03.894Z,11.70
2023-05-11T10:05:34.432Z,11.25
2023-05-11T10:08:01.954Z,9.90
2023-05-11T10:10:29.630Z,13.25
2023-05-11T10:12:57.495Z,12.00
2023-05-11T10:15:28.219Z,10.43
2023-05-11T10:17:55.883Z,7.95
2023-05-11T10:20:22.370Z,12.48
2023-05-11T10:22:50.635Z,11.07
2023-05-11T10:25:17.298Z,9.13
2023-05-11T10:27:43.972Z,8.68
2023-05-11T10:30:10.437Z,11.52
2023-05-11T10:32:39.790Z,12.93
2023-05-11T10:35:06.730Z,10.50
2023-05-11T10:37:33.490Z,11.68
2023-05-11T10:40:00.066Z,10.75
2023-05-11T10:42:37.537Z,8.20
2023-05-11T10:45:22.937Z,11.40
2023-05-11T10:48:08.184Z,9.53
2023-05-11T10:50:53.595Z,10.18
2023-05-11T10:53:38.828Z,10.32
2023-05-11T10:56:14.428Z,11.93
2023-05-11T10:58:59.981Z,10.40
2023-05-11T11:01:32.499Z,9.32
2023-05-11T11:04:01.907Z,10.90
2023-05-11T11:06:29.503Z,10.75
2023-05-11T11:09:00.058Z,11.48
2023-05-11T11:11:29.525Z,11.85
2023-05-11T11:14:01.525Z,9.85
2023-05-11T11:16:28.615Z,11.63
2023-05-11T11:19:13.926Z,9.55
2023-05-11T11:21:44.168Z,10.25
2023-05-11T11:24:30.439Z,9.77
2023-05-11T11:29:23.625Z,10.93
2023-05-11T11:31:49.903Z,8.13
2023-05-11T11:34:28.342Z,8.25
2023-05-11T11:36:54.812Z,7.68
2023-05-11T11:39:49.856Z,8.27
2023-05-11T11:42:37.854Z,9.98
2023-05-11T11:45:22.958Z,9.60
2023-05-11T11:48:05.926Z,8.02
2023-05-11T11:50:32.883Z,10.27
2023-05-11T11:52:59.656Z,8.45
2023-05-11T11:55:44.612Z,9.73
2023-05-11T11:58:11.513Z,8.57
2023-05-11T12:00:37.963Z,8.52
2023-05-11T12:03:04.433Z,7.85
2023-05-11T12:05:31.453Z,9.27
2023-05-11T12:07:59.939Z,11.90
2023-05-11T12:10:26.279Z,9.52
2023-05-11T12:12:59.225Z,8.68
2023-05-11T12:15:30.230Z,9.75
2023-05-11T12:17:56.794Z,8.25
2023-05-11T12:20:23.840Z,8.25
2023-05-11T12:22:50.393Z,9.93
2023-05-11T12:25:18.359Z,8.10
2023-05-11T12:27:51.125Z,9.13
2023-05-11T12:30:28.644Z,8.75
2023-05-11T12:32:57.425Z,9.20
2023-05-11T12:35:25.642Z,8.48
2023-05-11T12:37:52.201Z,9.73
2023-05-11T12:40:18.965Z,7.90
2023-05-11T12:42:52.476Z,8.32
2023-05-11T12:45:23.471Z,8.60
2023-05-11T12:47:50.781Z,8.05
2023-05-11T12:50:17.626Z,7.45
2023-05-11T12:52:44.475Z,7.78
2023-05-11T12:55:11.619Z,8.98
2023-05-11T12:57:38.896Z,7.15
2023-05-11T13:00:16.100Z,8.00
2023-05-11T13:02:50.309Z,7.00
2023-05-11T13:05:19.370Z,7.03
2023-05-11T13:07:45.975Z,8.30
2023-05-11T13:10:14.123Z,9.30
2023-05-11T13:12:51.987Z,7.15
2023-05-11T13:15:19.769Z,8.40
2023-05-11T13:17:46.483Z,7.30
2023-05-11T13:20:19.245Z,10.60
2023-05-11T13:22:46.079Z,7.72
2023-05-11T13:25:18.302Z,8.73
2023-05-11T13:27:44.774Z,9.60
2023-05-11T13:30:11.506Z,7.80
2023-05-11T13:32:38.520Z,8.07
2023-05-11T13:35:05.213Z,6.13
2023-05-11T13:37:32.208Z,8.48
2023-05-11T13:39:58.773Z,8.18
2023-05-11T13:42:25.187Z,7.07
2023-05-11T13:44:51.751Z,7.28
2023-05-11T13:47:21.304Z,5.90
2023-05-11T13:49:47.601Z,5.40
2023-05-11T13:52:13.956Z,9.55
2023-05-11T13:54:40.290Z,7.78
2023-05-11T13:57:06.821Z,6.90
2023-05-11T13:59:33.153Z,6.88
2023-05-11T14:01:59.603Z,5.03
2023-05-11T14:04:26.021Z,6.70
2023-05-11T14:06:55.386Z,7.15
2023-05-11T14:09:23.136Z,8.48
2023-05-11T14:11:50.653Z,6.95
2023-05-11T14:14:17.214Z,6.68
2023-05-11T14:16:43.588Z,6.10
2023-05-11T14:19:09.987Z,6.03
2023-05-11T14:21:36.468Z,7.28
2023-05-11T14:24:11.248Z,5.03
2023-05-11T14:26:41.752Z,5.22
2023-05-11T14:29:08.204Z,4.38
2023-05-11T14:31:35.827Z,6.38
2023-05-11T14:34:05.312Z,8.20
2023-05-11T14:36:32.070Z,6.38
2023-05-11T14:38:58.570Z,6.03
2023-05-11T14:41:25.714Z,5.82
2023-05-11T14:43:52.351Z,5.50
2023-05-11T14:46:18.738Z,6.20
2023-05-11T14:48:45.138Z,6.30
2023-05-11T14:51:12.055Z,7.00
2023-05-11T14:53:38.736Z,7.90
2023-05-11T14:56:05.234Z,6.25
2023-05-11T14:58:31.863Z,6.75
2023-05-11T15:00:58.169Z,7.82
2023-05-11T15:03:25.143Z,5.82
2023-05-11T15:05:51.646Z,5.53
2023-05-11T15:08:29.094Z,5.28
2023-05-11T15:10:56.740Z,5.93
2023-05-11T15:13:24.093Z,6.82
2023-05-11T15:15:51.405Z,6.07
2023-05-11T15:18:17.786Z,6.22
2023-05-11T15:20:44.474Z,7.90
2023-05-11T15:23:11.779Z,6.55
2023-05-11T15:25:38.415Z,7.07
2023-05-11T15:28:06.181Z,7.78
2023-05-11T15:30:33.037Z,7.28
2023-05-11T15:32:59.496Z,8.13
2023-05-11T15:35:25.833Z,9.00
2023-05-11T15:37:52.167Z,9.07
2023-05-11T15:40:18.572Z,8.68
2023-05-11T15:42:44.884Z,13.30
2023-05-11T15:45:11.179Z,11.25
2023-05-11T15:47:37.912Z,8.70
2023-05-11T15:50:04.461Z,10.85
2023-05-11T15:52:31.662Z,10.75
2023-05-11T15:54:58.007Z,10.35
2023-05-11T15:57:24.351Z,13.60
2023-05-11T15:59:50.736Z,11.93
2023-05-11T16:02:17.061Z,12.15
2023-05-11T16:04:43.432Z,12.80
2023-05-11T16:07:09.839Z,15.07
2023-05-11T16:09:36.142Z,14.32
2023-05-11T16:12:02.462Z,12.57
2023-05-11T16:14:28.915Z,16.17
2023-05-11T16:16:55.583Z,11.75
2023-05-11T16:19:21.903Z,13.85
2023-05-11T16:21:48.233Z,13.23
2023-05-11T16:24:14.886Z,13.55
2023-05-11T16:26:41.257Z,16.42
2023-05-11T16:29:08.766Z,15.98
2023-05-11T16:31:35.130Z,16.95
2023-05-11T16:34:01.640Z,16.02
2023-05-11T16:36:29.074Z,17.67
2023-05-11T16:38:55.554Z,17.85
2023-05-11T16:41:24.935Z,16.17
2023-05-11T16:43:51.373Z,18.80
2023-05-11T16:46:17.677Z,19.10
2023-05-11T16:48:44.143Z,16.98
2023-05-11T16:51:12.844Z,18.02
2023-05-11T16:53:39.171Z,18.52
2023-05-11T16:56:05.798Z,15.02
2023-05-11T16:58:32.384Z,18.13
2023-05-11T17:01:02.147Z,17.60
2023-05-11T17:03:28.569Z,17.80
2023-05-11T17:05:55.882Z,21.23
2023-05-11T17:08:22.175Z,19.40
2023-05-11T17:10:48.467Z,16.95
2023-05-11T17:13:14.829Z,19.65
2023-05-11T17:15:41.759Z,16.83
2023-05-11T17:18:08.437Z,18.73
2023-05-11T17:20:35.121Z,18.77
2023-05-11T17:23:01.426Z,19.77
2023-05-11T17:25:29.541Z,21.00
2023-05-11T17:27:55.891Z,19.55
2023-05-11T17:30:25.469Z,18.50
2023-05-11T17:32:56.504Z,19.30
2023-05-11T17:35:23.682Z,18.45
2023-05-11T17:37:54.251Z,20.20
2023-05-11T17:40:20.888Z,24.33
2023-05-11T17:42:48.022Z,22.17
2023-05-11T17:45:14.339Z,20.30
2023-05-11T17:47:40.721Z,23.60
2023-05-11T17:50:07.340Z,26.05
2023-05-11T17:52:33.678Z,21.98
2023-05-11T17:54:59.986Z,27.33
2023-05-11T17:57:26.637Z,19.38
2023-05-11T17:59:53.569Z,21.67
2023-05-11T18:02:20.037Z,19.45
2023-05-11T18:04:46.535Z,21.27
2023-05-11T18:07:12.846Z,20.98
2023-05-11T18:09:39.734Z,21.27
2023-05-11T18:12:07.836Z,19.55
2023-05-11T18:14:34.212Z,19.50
2023-05-11T18:17:00.629Z,26.33
2023-05-11T18:19:28.669Z,20.40
2023-05-11T18:21:55.121Z,20.58
2023-05-11T18:24:21.420Z,19.98
2023-05-11T18:26:55.955Z,18.98
2023-05-11T18:29:25.552Z,19.15
2023-05-11T18:31:52.784Z,19.95
2023-05-11T18:34:19.173Z,20.45
2023-05-11T18:36:45.462Z,17.75
2023-05-11T18:39:11.890Z,16.83
2023-05-11T18:41:38.230Z,18.00
2023-05-11T18:44:04.677Z,18.05
2023-05-11T18:46:31.084Z,19.13
2023-05-11T18:48:57.494Z,20.05
2023-05-11T18:51:24.062Z,18.73
2023-05-11T18:53:50.541Z,18.45
2023-05-11T18:56:17.284Z,22.67
2023-05-11T18:58:46.730Z,18.05
2023-05-11T19:01:13.166Z,16.42
2023-05-11T19:03:39.669Z,22.55
2023-05-11T19:06:10.537Z,20.98
2023-05-11T19:08:37.024Z,21.67
2023-05-11T19:11:04.674Z,20.15
2023-05-11T19:13:31.066Z,21.60
2023-05-11T19:15:57.374Z,20.92
2023-05-11T19:18:23.971Z,17.85
2023-05-11T19:20:50.242Z,22.77
2023-05-11T19:23:17.083Z,19.73
2023-05-11T19:25:43.611Z,18.75
2023-05-11T19:28:09.907Z,19.17
2023-05-11T19:30:38.194Z,15.98
2023-05-11T19:33:05.045Z,17.90
2023-05-11T19:35:32.916Z,20.33
2023-05-11T19:37:59.205Z,19.17
2023-05-11T19:40:45.418Z,20.58
2023-05-11T19:43:12.439Z,14.82
2023-05-11T19:45:38.772Z,15.95
2023-05-11T19:48:05.184Z,18.33
2023-05-11T19:50:31.544Z,14.82
2023-05-11T19:52:57.899Z,17.65
2023-05-11T19:55:24.433Z,13.45
2023-05-11T19:57:50.866Z,17.88
2023-05-11T20:00:18.650Z,15.05
2023-05-11T20:02:45.413Z,14.07
2023-05-11T20:05:11.907Z,14.50
2023-05-11T20:07:38.840Z,12.90
2023-05-11T20:10:05.731Z,15.30
2023-05-11T20:12:32.031Z,11.40
2023-05-11T20:14:58.359Z,14.13
2023-05-11T20:17:24.794Z,11.68
2023-05-11T20:19:51.300Z,10.65
2023-05-11T20:22:17.720Z,13.10
2023-05-11T20:24:44.026Z,12.52
2023-05-11T20:27:11.063Z,14.73
2023-05-11T20:29:38.920Z,10.73
2023-05-11T20:32:05.443Z,12.95
2023-05-11T20:34:31.816Z,11.23
2023-05-11T20:36:58.146Z,13.63
2023-05-11T20:39:24.452Z,12.63
2023-05-11T20:41:50.806Z,9.40
2023-05-11T20:44:17.533Z,13.27
2023-05-11T20:46:44.143Z,9.25
2023-05-11T20:49:18.144Z,9.77
2023-05-11T20:51:50.675Z,10.05
2023-05-11T20:54:17.955Z,8.48
2023-05-11T20:56:44.277Z,10.07
2023-05-11T21:00:03.877Z,8.63
2023-05-11T21:01:59.794Z,8.63
2023-05-11T21:04:26.150Z,10.60
2023-05-11T21:06:55.480Z,9.38
2023-05-11T21:09:21.822Z,9.00
2023-05-11T21:11:48.789Z,8.35
2023-05-11T21:14:15.327Z,7.00
2023-05-11T21:16:41.876Z,7.25
2023-05-11T21:19:08.417Z,7.95
2023-05-11T21:21:34.810Z,7.78
2023-05-11T21:24:01.192Z,6.32
2023-05-11T21:26:27.477Z,6.88
2023-05-11T21:28:53.764Z,7.03
2023-05-11T21:31:20.717Z,7.45
2023-05-11T21:33:47.227Z,8.05
2023-05-11T21:36:13.593Z,6.07
2023-05-11T21:38:39.923Z,7.90
2023-05-11T21:41:06.332Z,6.65
2023-05-11T21:43:32.987Z,6.70
2023-05-11T21:45:59.400Z,5.68
2023-05-11T21:48:25.816Z,6.90
2023-05-11T21:50:53.668Z,6.53
2023-05-11T21:53:20.323Z,6.90
2023-05-11T21:55:46.673Z,6.03
2023-05-11T21:58:13.132Z,7.15
2023-05-11T22:00:39.445Z,7.22
2023-05-11T22:03:05.877Z,5.53
2023-05-11T22:05:32.366Z,7.32
2023-05-11T22:08:10.502Z,10.48
2023-05-11T22:10:40.924Z,5.45
2023-05-11T22:13:07.294Z,6.28
2023-05-11T22:15:33.569Z,5.88
2023-05-11T22:17:59.870Z,6.00
2023-05-11T22:20:26.230Z,5.85
2023-05-11T22:22:52.533Z,6.28
2023-05-11T22:25:19.054Z,6.18
2023-05-11T22:27:45.403Z,7.95
2023-05-11T22:30:12.282Z,6.05
2023-05-11T22:32:38.655Z,5.82
2023-05-11T22:35:05.249Z,5.63
2023-05-11T22:37:31.606Z,4.93
2023-05-11T22:39:57.987Z,6.07
2023-05-11T22:42:24.386Z,5.03
2023-05-11T22:44:50.821Z,6.88
2023-05-11T22:47:17.187Z,6.13
2023-05-11T22:49:43.586Z,6.75
2023-05-11T22:52:09.955Z,5.80
2023-05-11T22:54:36.761Z,6.68
2023-05-11T22:57:03.676Z,6.03
2023-05-11T22:59:34.234Z,5.38
2023-05-11T23:02:04.505Z,4.95
2023-05-11T23:04:32.343Z,6.03
2023-05-11T23:06:59.500Z,5.15
2023-05-11T23:09:26.566Z,4.57
2023-05-11T23:11:53.311Z,6.38
2023-05-11T23:14:19.665Z,5.53
2023-05-11T23:16:46.017Z,5.70
2023-05-11T23:19:12.375Z,5.50
2023-05-11T23:21:38.807Z,6.32
2023-05-11T23:24:05.506Z,6.70
2023-05-11T23:26:31.774Z,5.45
2023-05-11T23:28:58.110Z,5.32
2023-05-11T23:31:24.484Z,5.38
2023-05-11T23:33:50.936Z,5.80
2023-05-11T23:36:18.303Z,5.00
2023-05-11T23:38:44.638Z,4.47
2023-05-11T23:41:10.983Z,5.78
2023-05-11T23:43:37.315Z,4.80
2023-05-11T23:46:03.610Z,5.95
2023-05-11T23:48:30.066Z,4.88
2023-05-11T23:50:56.440Z,5.30
2023-05-11T23:53:25.564Z,5.20
2023-05-11T23:55:51.822Z,4.50
2023-05-11T23:58:18.116Z,4.72
